Time;durP1;ratioP1;P1;durP2;ratioP2;P2;SDS_P1;SDS_P2;PMS_P1;PMS_P2;Temp;Humidity;BMP_temperature;BMP_pressure;BME280_temperature;BME280_humidity;BME280_pressure;Samples;Min_cycle;Max_cycle;Signal;HPM_P1;HPM_P2
2022/08/11 00:02:13;;;;;;;;;;;;;;;26.62;57.34;100207.44;7315732;19;128986;-33
2022/08/11 00:04:38;;;;;;;;;;;;;;;26.72;57.23;100209.00;7316247;19;129537;-34
2022/08/11 00:07:05;;;;;;;;;;;;;;;26.73;57.69;100215.09;7315074;19;129146;-36
2022/08/11 00:09:32;;;;;;;;;;;;;;;26.74;58.00;100216.75;7315671;19;128808;-36
2022/08/11 00:11:58;;;;;;;;;;;;;;;26.74;57.77;100212.28;7313138;19;129576;-33
2022/08/11 00:14:25;;;;;;;;;;;;;;;26.72;57.32;100219.56;7315059;19;129111;-34
2022/08/11 00:16:56;;;;;;;;;;;;;;;26.71;57.59;100220.53;7315693;19;128911;-40
2022/08/11 00:19:23;;;;;;;;;;;;;;;26.73;57.71;100225.63;7316317;19;128751;-35
2022/08/11 00:21:48;;;;;;;;;;;;;;;26.72;57.80;100214.28;7313420;19;129207;-35
2022/08/11 00:24:14;;;;;;;;;;;;;;;26.73;57.44;100220.34;7313563;19;129555;-34
2022/08/11 00:26:45;;;;;;;;;;;;;;;26.75;57.42;100226.31;7315181;19;128973;-36
2022/08/11 00:29:11;;;;;;;;;;;;;;;26.75;58.27;100235.06;7315101;19;129181;-31
2022/08/11 00:31:37;;;;;;;;;;;;;;;26.59;54.29;100232.28;7312564;19;129446;-38
2022/08/11 00:34:03;;;;;;;;;;;;;;;26.00;52.22;100226.09;7313947;19;130343;-37
2022/08/11 00:36:38;;;;;;;;;;;;;;;26.13;56.77;100227.38;7314809;19;129611;-35
2022/08/11 00:39:04;;;;;;;;;;;;;;;26.44;57.14;100230.41;7315508;19;129020;-38
2022/08/11 00:41:35;;;;;;;;;;;;;;;26.56;57.38;100234.44;7314171;19;129706;-37
2022/08/11 00:44:03;;;;;;;;;;;;;;;26.66;57.96;100224.59;7312119;19;129485;-36
2022/08/11 00:46:50;;;;;;;;;;;;;;;26.60;57.33;100215.50;7314316;19;128803;-35
2022/08/11 00:49:22;;;;;;;;;;;;;;;26.70;57.21;100232.06;7313816;19;129316;-34
2022/08/11 00:51:56;;;;;;;;;;;;;;;26.62;57.14;100213.53;7311956;19;129451;-35
2022/08/11 00:54:28;;;;;;;;;;;;;;;26.73;57.88;100231.75;7314692;19;129187;-39
2022/08/11 00:57:11;;;;;;;;;;;;;;;26.74;57.70;100233.41;7315009;19;128809;-37
2022/08/11 00:59:37;;;;;;;;;;;;;;;26.76;57.54;100231.44;7313810;19;129044;-39
2022/08/11 01:02:22;;;;;;;;;;;;;;;26.73;57.67;100236.19;7314206;19;129091;-34
2022/08/11 01:04:50;;;;;;;;;;;;;;;26.72;57.12;100227.47;7313567;19;130781;-34
2022/08/11 01:07:34;;;;;;;;;;;;;;;26.75;57.84;100223.69;7314333;19;129070;-38
2022/08/11 01:10:18;;;;;;;;;;;;;;;26.74;58.06;100217.56;7313106;19;128993;-35
2022/08/11 01:12:49;;;;;;;;;;;;;;;26.77;57.32;100219.06;7313695;19;129003;-37
2022/08/11 01:15:33;;;;;;;;;;;;;;;26.74;57.77;100222.84;7314413;19;129401;-37
2022/08/11 01:18:17;;;;;;;;;;;;;;;26.74;57.51;100224.66;7315185;19;128910;-33
2022/08/11 01:20:42;;;;;;;;;;;;;;;26.18;52.52;100230.38;7313439;19;128933;-35
2022/08/11 01:23:26;;;;;;;;;;;;;;;25.81;52.74;100211.28;7312272;19;129672;-36
2022/08/11 01:26:00;;;;;;;;;;;;;;;26.29;57.04;100230.16;7313540;19;129271;-35
2022/08/11 01:28:46;;;;;;;;;;;;;;;26.50;57.15;100233.25;7312964;19;129092;-33
2022/08/11 01:31:17;;;;;;;;;;;;;;;26.61;57.77;100227.69;7311766;19;130716;-33
2022/08/11 01:34:01;;;;;;;;;;;;;;;26.69;57.44;100234.88;7312570;19;129435;-34
2022/08/11 01:36:45;;;;;;;;;;;;;;;26.69;57.45;100225.13;7312816;19;130202;-35
2022/08/11 01:39:30;;;;;;;;;;;;;;;26.72;56.97;100227.47;7312171;19;129284;-36
2022/08/11 01:45:09;;;;;;;;;;;;;;;26.73;57.16;100226.47;7310853;19;129387;-38
2022/08/11 01:47:49;;;;;;;;;;;;;;;26.75;57.98;100227.16;7310841;19;129187;-41
2022/08/11 01:50:21;;;;;;;;;;;;;;;26.75;57.16;100221.88;7311679;19;129353;-39
2022/08/11 01:52:47;;;;;;;;;;;;;;;26.69;57.21;100211.94;7313655;19;128849;-34
2022/08/11 01:55:13;;;;;;;;;;;;;;;26.74;58.13;100214.94;7310383;19;130233;-40
2022/08/11 01:57:46;;;;;;;;;;;;;;;26.73;57.46;100221.19;7313089;19;130128;-39
2022/08/11 02:00:18;;;;;;;;;;;;;;;26.74;57.49;100214.94;7311910;19;132128;-41
2022/08/11 02:03:02;;;;;;;;;;;;;;;26.74;57.94;100207.00;7314403;19;129929;-37
2022/08/11 02:05:42;;;;;;;;;;;;;;;26.75;57.89;100211.31;7318688;19;130152;-38
2022/08/11 02:08:13;;;;;;;;;;;;;;;26.76;57.77;100212.97;7320830;19;129822;-38
2022/08/11 02:13:31;;;;;;;;;;;;;;;26.10;56.40;100209.25;7321573;19;129655;-37
2022/08/11 02:16:06;;;;;;;;;;;;;;;26.43;56.87;100213.75;7320687;19;129995;-40
2022/08/11 02:24:13;;;;;;;;;;;;;;;26.70;57.46;100213.59;7319024;19;129447;-38
2022/08/11 02:26:39;;;;;;;;;;;;;;;26.70;57.27;100218.88;7320937;19;129958;-40
2022/08/11 02:29:11;;;;;;;;;;;;;;;26.72;57.75;100219.56;7322318;19;129666;-39
2022/08/11 02:34:36;;;;;;;;;;;;;;;26.73;57.47;100215.91;7322156;19;129027;-38
2022/08/11 02:37:15;;;;;;;;;;;;;;;26.74;57.56;100220.19;7320515;19;130835;-40
2022/08/11 02:40:00;;;;;;;;;;;;;;;26.73;57.57;100215.09;7319197;19;129575;-37
2022/08/11 02:42:36;;;;;;;;;;;;;;;26.66;57.63;100209.63;7317613;19;129078;-40
2022/08/11 02:45:11;;;;;;;;;;;;;;;26.65;57.71;100207.97;7317653;19;129438;-40
2022/08/11 02:50:48;;;;;;;;;;;;;;;26.75;57.45;100213.13;7318586;19;128981;-39
2022/08/11 02:53:23;;;;;;;;;;;;;;;26.77;57.78;100219.06;7320529;19;128940;-39
2022/08/11 02:56:07;;;;;;;;;;;;;;;26.75;57.63;100219.22;7320368;19;129262;-39
2022/08/11 02:59:48;;;;;;;;;;;;;;;26.01;52.25;100211.94;7320505;19;129078;-39
2022/08/11 03:01:48;;;;;;;;;;;;;;;26.21;57.20;100219.56;7317857;19;130220;-40
2022/08/11 03:04:19;;;;;;;;;;;;;;;26.46;57.74;100221.34;7318644;19;129388;-39
2022/08/11 03:06:49;;;;;;;;;;;;;;;26.59;57.58;100219.09;7321623;19;129792;-40
2022/08/11 03:09:39;;;;;;;;;;;;;;;26.68;57.09;100227.91;7319458;19;130596;-40
2022/08/11 03:18:29;;;;;;;;;;;;;;;26.71;56.85;100231.06;7315682;19;129076;-40
2022/08/11 03:21:23;;;;;;;;;;;;;;;26.70;56.95;100234.72;7317692;19;129127;-40
2022/08/11 03:24:00;;;;;;;;;;;;;;;26.72;57.44;100231.91;7317756;19;129374;-38
2022/08/11 03:26:25;;;;;;;;;;;;;;;26.72;57.27;100231.91;7319154;19;128805;-39
2022/08/11 03:29:00;;;;;;;;;;;;;;;26.75;58.09;100228.94;7318233;19;129224;-39
2022/08/11 03:31:33;;;;;;;;;;;;;;;26.75;57.27;100234.22;7316526;19;129231;-39
2022/08/11 03:34:01;;;;;;;;;;;;;;;26.74;57.77;100228.13;7319005;19;129792;-39
2022/08/11 03:36:45;;;;;;;;;;;;;;;26.66;57.87;100214.88;7319331;19;128960;-38
2022/08/11 03:39:13;;;;;;;;;;;;;;;26.74;58.24;100228.13;7318880;19;130602;-40
2022/08/11 03:41:52;;;;;;;;;;;;;;;26.76;57.87;100231.44;7317146;19;130358;-39
2022/08/11 03:44:36;;;;;;;;;;;;;;;26.73;57.70;100229.13;7317872;19;129182;-37
2022/08/11 03:47:20;;;;;;;;;;;;;;;26.02;51.82;100227.63;7318868;19;128905;-41
2022/08/11 03:50:05;;;;;;;;;;;;;;;26.11;56.45;100226.72;7318002;19;128909;-39
2022/08/11 03:52:30;;;;;;;;;;;;;;;26.45;57.51;100230.25;7317703;19;129454;-39
2022/08/11 03:55:17;;;;;;;;;;;;;;;26.49;57.43;100212.31;7317435;19;129124;-38
2022/08/11 03:58:00;;;;;;;;;;;;;;;26.60;57.28;100217.31;7316320;19;129697;-40
2022/08/11 04:00:34;;;;;;;;;;;;;;;26.69;56.82;100221.69;7316787;19;129193;-37
2022/08/11 04:03:11;;;;;;;;;;;;;;;26.62;57.60;100207.44;7316962;19;130221;-38
2022/08/11 04:06:03;;;;;;;;;;;;;;;26.72;57.26;100218.72;7318183;19;129771;-37
2022/08/11 04:08:37;;;;;;;;;;;;;;;26.73;57.38;100221.19;7318037;19;129543;-39
2022/08/11 04:11:21;;;;;;;;;;;;;;;26.74;57.22;100217.56;7317127;19;128915;-39
2022/08/11 04:17:07;;;;;;;;;;;;;;;26.75;57.14;100219.22;7317754;19;129334;-39
2022/08/11 04:19:51;;;;;;;;;;;;;;;26.77;58.02;100217.28;7317669;19;128966;-39
2022/08/11 04:22:44;;;;;;;;;;;;;;;26.76;57.47;100215.59;7318467;19;129188;-39
2022/08/11 04:25:09;;;;;;;;;;;;;;;26.66;57.42;100193.78;7315187;19;130157;-39
2022/08/11 04:27:52;;;;;;;;;;;;;;;26.76;57.71;100215.59;7316237;19;129658;-41
2022/08/11 04:30:20;;;;;;;;;;;;;;;26.79;57.35;100219.75;7316545;19;128914;-39
2022/08/11 04:32:57;;;;;;;;;;;;;;;26.76;58.15;100220.03;7316246;19;128926;-39
2022/08/11 04:35:23;;;;;;;;;;;;;;;26.17;52.37;100220.81;7317590;19;129588;-40
2022/08/11 04:37:48;;;;;;;;;;;;;;;25.98;52.21;100218.31;7317337;19;129269;-39
2022/08/11 04:40:28;;;;;;;;;;;;;;;26.31;56.74;100228.16;7317132;19;129561;-38
2022/08/11 04:43:21;;;;;;;;;;;;;;;26.52;57.63;100226.00;7317222;19;129908;-39
2022/08/11 04:45:52;;;;;;;;;;;;;;;26.64;56.77;100213.38;7317226;19;128987;-38
2022/08/11 05:03:59;;;;;;;;;;;;;;;26.74;57.25;100222.84;7316229;19;129319;-40
2022/08/11 05:06:30;;;;;;;;;;;;;;;26.75;57.59;100219.22;7316623;19;129106;-39
2022/08/11 05:09:18;;;;;;;;;;;;;;;26.74;57.59;100217.56;7315188;19;129431;-40
2022/08/11 05:12:09;;;;;;;;;;;;;;;26.76;57.59;100220.88;7312942;19;129203;-40
2022/08/11 05:37:12;;;;;;;;;;;;;;;26.64;57.12;100243.19;7315913;19;129668;-37
2022/08/11 05:56:18;;;;;;;;;;;;;;;26.73;57.56;100252.84;7315275;19;129022;-40
2022/08/11 05:58:45;;;;;;;;;;;;;;;26.73;57.47;100252.03;7314398;19;128844;-40
2022/08/11 06:01:11;;;;;;;;;;;;;;;26.73;57.35;100255.50;7312042;19;128788;-39
2022/08/11 06:06:21;;;;;;;;;;;;;;;26.71;57.95;100254.81;7312867;19;129344;-38
2022/08/11 06:08:47;;;;;;;;;;;;;;;26.67;57.71;100242.09;7312707;19;128821;-38
2022/08/11 06:11:12;;;;;;;;;;;;;;;26.29;53.40;100253.03;7312426;19;129266;-38
2022/08/11 06:13:43;;;;;;;;;;;;;;;25.92;52.62;100249.72;7312269;19;129321;-37
2022/08/11 06:16:08;;;;;;;;;;;;;;;26.22;57.40;100246.72;7313037;19;129460;-40
2022/08/11 06:18:35;;;;;;;;;;;;;;;26.36;57.27;100233.78;7312927;19;129426;-38
2022/08/11 06:21:01;;;;;;;;;;;;;;;26.51;57.33;100240.16;7311258;19;128989;-38
2022/08/11 06:23:30;;;;;;;;;;;;;;;26.65;57.21;100254.59;7312666;19;129237;-39
2022/08/11 06:25:57;;;;;;;;;;;;;;;26.69;57.00;100262.06;7312698;19;129464;-38
2022/08/11 06:28:34;;;;;;;;;;;;;;;26.70;56.97;100260.25;7311927;19;129549;-39
2022/08/11 06:31:01;;;;;;;;;;;;;;;26.73;56.94;100263.41;7310958;19;128970;-39
2022/08/11 06:33:32;;;;;;;;;;;;;;;26.75;57.02;100260.59;7313332;19;129493;-37
2022/08/11 06:36:00;;;;;;;;;;;;;;;26.75;57.03;100250.06;7312828;19;129677;-37
2022/08/11 06:38:26;;;;;;;;;;;;;;;26.74;57.41;100265.06;7312128;19;129000;-38
2022/08/11 06:43:50;;;;;;;;;;;;;;;26.74;57.61;100262.41;7311103;19;129039;-39
2022/08/11 06:46:21;;;;;;;;;;;;;;;26.74;57.59;100254.50;7312313;19;130206;-38
2022/08/11 06:48:47;;;;;;;;;;;;;;;26.75;57.44;100261.44;7313061;19;128919;-38
2022/08/11 06:51:13;;;;;;;;;;;;;;;26.67;57.68;100242.09;7314882;19;128890;-38
2022/08/11 06:53:38;;;;;;;;;;;;;;;26.76;57.85;100262.25;7318373;19;130109;-40
2022/08/11 07:01:35;;;;;;;;;;;;;;;26.14;52.47;100260.69;7318037;19;129039;-37
2022/08/11 07:04:05;;;;;;;;;;;;;;;25.94;51.94;100259.16;7318388;19;129237;-39
2022/08/11 07:06:31;;;;;;;;;;;;;;;26.29;57.21;100264.41;7318239;19;130280;-38
2022/08/11 07:17:36;;;;;;;;;;;;;;;26.64;57.47;100239.75;7319289;19;129667;-37
2022/08/11 07:31:29;;;;;;;;;;;;;;;26.76;57.12;100249.91;7317822;19;129189;-38
2022/08/11 07:34:03;;;;;;;;;;;;;;;26.77;57.37;100248.94;7317548;19;129390;-38
2022/08/11 07:36:30;;;;;;;;;;;;;;;26.77;58.10;100251.56;7318035;19;129542;-38
2022/08/11 07:38:56;;;;;;;;;;;;;;;26.78;57.65;100245.31;7317734;19;129715;-38
2022/08/11 07:41:22;;;;;;;;;;;;;;;26.79;57.72;100244.31;7316049;19;129609;-39
2022/08/11 07:43:50;;;;;;;;;;;;;;;26.79;57.49;100240.84;7316663;19;129564;-39
2022/08/11 07:54:42;;;;;;;;;;;;;;;26.13;57.20;100234.47;7317907;19;128949;-37
2022/08/11 08:19:05;;;;;;;;;;;;;;;26.76;57.15;100230.59;7316315;19;129375;-39
2022/08/11 08:21:31;;;;;;;;;;;;;;;26.75;58.00;100229.78;7314507;19;129312;-37
2022/08/11 08:23:57;;;;;;;;;;;;;;;26.76;57.60;100228.78;7315723;19;129614;-38
2022/08/11 08:31:52;;;;;;;;;;;;;;;26.66;57.23;100208.78;7314788;19;128972;-39
2022/08/11 08:34:17;;;;;;;;;;;;;;;26.77;57.60;100227.00;7315752;19;128638;-38
2022/08/11 08:36:47;;;;;;;;;;;;;;;26.76;57.75;100220.88;7316889;19;129272;-38
2022/08/11 08:39:13;;;;;;;;;;;;;;;26.02;52.44;100211.81;7315722;19;130037;-37
2022/08/11 08:41:38;;;;;;;;;;;;;;;25.91;51.77;100222.56;7314362;19;129376;-38
2022/08/11 08:44:08;;;;;;;;;;;;;;;26.29;57.48;100221.41;7315539;19;128840;-38
2022/08/11 08:46:36;;;;;;;;;;;;;;;26.47;57.35;100204.56;7316590;19;129414;-38
2022/08/11 08:49:02;;;;;;;;;;;;;;;26.57;57.37;100210.53;7315696;19;129368;-37
2022/08/11 08:51:34;;;;;;;;;;;;;;;26.65;57.24;100213.25;7313792;19;129373;-38
2022/08/11 08:54:15;;;;;;;;;;;;;;;26.68;57.76;100206.81;7315771;19;129149;-39
2022/08/11 08:56:42;;;;;;;;;;;;;;;26.69;57.17;100209.28;7315659;19;129005;-38
2022/08/11 08:59:09;;;;;;;;;;;;;;;26.70;57.53;100218.88;7315405;19;130509;-38
2022/08/11 09:01:37;;;;;;;;;;;;;;;26.72;57.02;100209.00;7313945;19;129712;-37
2022/08/11 09:04:07;;;;;;;;;;;;;;;26.73;57.42;100210.66;7315499;19;128936;-37
2022/08/11 09:06:33;;;;;;;;;;;;;;;26.74;57.47;100206.22;7316233;19;131001;-38
2022/08/11 09:08:58;;;;;;;;;;;;;;;26.74;57.64;100204.38;7314444;19;129117;-38
2022/08/11 09:14:08;;;;;;;;;;;;;;;26.75;57.63;100213.97;7313111;19;129280;-39
2022/08/11 09:16:34;;;;;;;;;;;;;;;26.76;57.37;100205.03;7316163;19;128850;-39
2022/08/11 09:19:00;;;;;;;;;;;;;;;26.76;57.86;100205.03;7314127;19;131136;-38
2022/08/11 09:21:26;;;;;;;;;;;;;;;26.75;57.59;100213.97;7311957;19;129691;-39
2022/08/11 09:29:31;;;;;;;;;;;;;;;25.92;52.13;100195.25;7312799;19;131736;-39
2022/08/11 09:31:57;;;;;;;;;;;;;;;26.32;57.48;100200.84;7312679;19;129545;-38
2022/08/11 09:34:23;;;;;;;;;;;;;;;26.49;57.30;100199.13;7314280;19;129074;-40
2022/08/11 09:42:19;;;;;;;;;;;;;;;26.57;56.58;100184.16;7314515;19;129452;-39
2022/08/11 09:44:46;;;;;;;;;;;;;;;26.68;57.15;100197.09;7313618;19;129079;-39
2022/08/11 09:47:14;;;;;;;;;;;;;;;26.69;57.21;100190.81;7314404;19;128953;-38
2022/08/11 09:49:42;;;;;;;;;;;;;;;26.69;57.38;100196.09;7314106;19;129403;-39
2022/08/11 09:52:08;;;;;;;;;;;;;;;26.70;57.66;100187.22;7314147;19;129517;-38
2022/08/11 09:54:33;;;;;;;;;;;;;;;26.71;57.48;100196.78;7314616;19;129243;-38
2022/08/11 09:59:43;;;;;;;;;;;;;;;26.72;57.51;100198.44;7314092;19;129335;-39
2022/08/11 10:02:09;;;;;;;;;;;;;;;26.62;57.28;100167.84;7313727;19;129595;-38
2022/08/11 10:04:39;;;;;;;;;;;;;;;26.73;58.08;100178.16;7313802;19;129318;-38
2022/08/11 10:07:05;;;;;;;;;;;;;;;26.72;57.99;100177.34;7314102;19;128857;-38
2022/08/11 10:09:39;;;;;;;;;;;;;;;26.72;57.89;100177.34;7313125;19;129365;-37
2022/08/11 10:12:07;;;;;;;;;;;;;;;26.71;57.73;100174.84;7310572;19;129272;-38
2022/08/11 10:17:19;;;;;;;;;;;;;;;25.91;52.56;100179.59;7313572;19;130116;-38
2022/08/11 10:19:46;;;;;;;;;;;;;;;26.24;57.25;100171.78;7313326;19;129193;-38
2022/08/11 10:27:43;;;;;;;;;;;;;;;26.53;57.87;100151.16;7320652;19;129121;-38
2022/08/11 10:35:37;;;;;;;;;;;;;;;26.67;57.09;100177.00;7320708;19;128721;-38
2022/08/11 10:38:03;;;;;;;;;;;;;;;26.65;57.69;100163.13;7319883;19;129226;-38
2022/08/11 10:40:28;;;;;;;;;;;;;;;26.68;58.06;100160.16;7319582;19;129262;-40
2022/08/11 10:43:01;;;;;;;;;;;;;;;26.69;57.26;100167.09;7319923;19;130217;-37
2022/08/11 10:48:12;;;;;;;;;;;;;;;26.70;57.59;100149.47;7318686;19;129165;-37
2022/08/11 10:58:50;;;;;;;;;;;;;;;26.70;58.08;100147.66;7319072;19;129146;-35
2022/08/11 11:01:26;;;;;;;;;;;;;;;26.70;57.49;100139.75;7318180;19;129791;-39
2022/08/11 11:04:03;;;;;;;;;;;;;;;25.99;52.64;100140.94;7319014;19;131457;-40
2022/08/11 11:06:32;;;;;;;;;;;;;;;26.08;56.21;100128.69;7318865;19;128781;-37
2022/08/11 11:09:10;;;;;;;;;;;;;;;26.38;57.51;100131.66;7318192;19;129495;-39
2022/08/11 11:19:56;;;;;;;;;;;;;;;26.59;56.99;100110.97;7318395;19;129467;-37
2022/08/11 11:22:38;;;;;;;;;;;;;;;26.66;57.01;100117.28;7318750;19;131681;-39
2022/08/11 11:25:15;;;;;;;;;;;;;;;26.67;57.63;100113.69;7317306;19;129710;-38
2022/08/11 11:27:43;;;;;;;;;;;;;;;26.68;58.07;100114.50;7318792;19;128922;-38
2022/08/11 11:30:09;;;;;;;;;;;;;;;26.60;57.54;100088.88;7317297;19;129004;-39
2022/08/11 11:32:34;;;;;;;;;;;;;;;26.57;57.65;100089.22;7317790;19;129028;-39
2022/08/11 11:35:12;;;;;;;;;;;;;;;26.65;57.38;100102.47;7319145;19;129160;-38
2022/08/11 11:37:38;;;;;;;;;;;;;;;26.67;57.71;100105.78;7316906;19;128835;-38
2022/08/11 11:40:09;;;;;;;;;;;;;;;26.69;57.85;100098.50;7316875;19;129082;-38
2022/08/11 11:42:35;;;;;;;;;;;;;;;26.68;58.15;100104.78;7317319;19;130012;-38
2022/08/11 11:45:01;;;;;;;;;;;;;;;26.59;57.54;100087.22;7317138;19;129187;-37
2022/08/11 11:47:27;;;;;;;;;;;;;;;26.68;57.71;100091.59;7319563;19;128913;-39
2022/08/11 11:49:53;;;;;;;;;;;;;;;26.69;57.68;100097.69;7318054;19;129252;-35
2022/08/11 11:52:20;;;;;;;;;;;;;;;25.93;52.09;100078.34;7317426;19;129298;-38
2022/08/11 11:54:50;;;;;;;;;;;;;;;25.91;56.15;100069.75;7316894;19;130122;-37
2022/08/11 12:02:46;;;;;;;;;;;;;;;26.52;57.64;100074.84;7317337;19;129387;-37
2022/08/11 12:05:13;;;;;;;;;;;;;;;26.63;57.39;100083.28;7315724;19;129802;-38
2022/08/11 12:10:23;;;;;;;;;;;;;;;26.63;57.80;100077.19;7315822;19;129168;-40
2022/08/11 12:15:34;;;;;;;;;;;;;;;26.66;57.69;100072.44;7317976;19;129468;-36
2022/08/11 12:18:00;;;;;;;;;;;;;;;26.56;57.45;100061.16;7316784;19;129273;-37
2022/08/11 12:20:26;;;;;;;;;;;;;;;26.67;57.62;100082.03;7315037;19;128929;-38
2022/08/11 12:28:32;;;;;;;;;;;;;;;26.68;57.74;100062.56;7316147;19;128974;-38
2022/08/11 12:30:58;;;;;;;;;;;;;;;26.66;57.41;100061.06;7316034;19;129507;-38
2022/08/11 12:33:23;;;;;;;;;;;;;;;26.69;58.30;100072.13;7317707;19;130217;-39
2022/08/11 12:35:53;;;;;;;;;;;;;;;26.69;57.88;100066.84;7316766;19;129273;-38
2022/08/11 12:38:20;;;;;;;;;;;;;;;26.67;58.42;100057.44;7316180;19;129386;-39
2022/08/11 12:46:23;;;;;;;;;;;;;;;26.35;57.67;100067.84;7315419;19;129408;-38
2022/08/11 12:51:57;;;;;;;;;;;;;;;26.60;57.94;100051.97;7314432;19;129295;-38
2022/08/11 12:54:53;;;;;;;;;;;;;;;26.53;57.52;100024.56;7316304;19;130977;-38
2022/08/11 13:05:38;;;;;;;;;;;;;;;26.68;57.96;100035.34;7314756;19;128949;-38
2022/08/11 13:08:05;;;;;;;;;;;;;;;26.66;57.67;100035.50;7314742;19;129209;-39
2022/08/11 13:13:16;;;;;;;;;;;;;;;26.67;58.24;100036.34;7315549;19;129086;-39
2022/08/11 13:15:42;;;;;;;;;;;;;;;26.66;57.96;100022.31;7315313;19;129146;-37
2022/08/11 13:18:08;;;;;;;;;;;;;;;26.64;57.81;100021.63;7315276;19;129238;-36
2022/08/11 13:20:34;;;;;;;;;;;;;;;26.65;57.73;100020.69;7314632;19;129290;-38
2022/08/11 13:23:00;;;;;;;;;;;;;;;26.64;58.22;100026.09;7314440;19;128656;-36
2022/08/11 13:25:26;;;;;;;;;;;;;;;26.60;58.13;100022.94;7313895;19;129772;-38
2022/08/11 13:27:53;;;;;;;;;;;;;;;26.16;52.96;100018.88;7316022;19;129284;-37
2022/08/11 13:33:03;;;;;;;;;;;;;;;26.21;56.91;100008.69;7314881;19;129486;-35
2022/08/11 13:35:32;;;;;;;;;;;;;;;26.41;57.44;100015.31;7314230;19;131219;-39
2022/08/11 13:38:00;;;;;;;;;;;;;;;26.51;57.08;100009.91;7315320;19;129343;-39
2022/08/11 13:40:26;;;;;;;;;;;;;;;26.58;57.51;100006.47;7313718;19;129224;-36
2022/08/11 13:42:51;;;;;;;;;;;;;;;26.52;57.10;99991.28;7314581;19;128853;-37
2022/08/11 13:45:18;;;;;;;;;;;;;;;26.62;57.91;100002.53;7312558;19;129472;-38
2022/08/11 13:47:44;;;;;;;;;;;;;;;26.62;57.26;99999.88;7315635;19;129539;-37
2022/08/11 13:50:12;;;;;;;;;;;;;;;26.63;57.46;99996.25;7313207;19;129140;-37
2022/08/11 13:52:38;;;;;;;;;;;;;;;26.63;57.72;99988.34;7313392;19;128893;-40
2022/08/11 13:55:04;;;;;;;;;;;;;;;26.63;57.17;99998.88;7313813;19;130162;-37
2022/08/11 13:57:34;;;;;;;;;;;;;;;26.65;57.86;99999.59;7313830;19;129229;-37
2022/08/11 14:00:09;;;;;;;;;;;;;;;26.66;57.89;99990.69;7316524;19;129149;-38
2022/08/11 14:02:36;;;;;;;;;;;;;;;26.64;57.54;99987.34;7328568;19;128827;-38
2022/08/11 14:05:04;;;;;;;;;;;;;;;26.64;57.51;99981.25;7326954;19;129528;-36
2022/08/11 14:07:34;;;;;;;;;;;;;;;26.65;58.33;99981.13;7327472;19;129049;-37
2022/08/11 14:09:59;;;;;;;;;;;;;;;26.65;58.11;99991.69;7328456;19;129174;-38
2022/08/11 14:15:20;;;;;;;;;;;;;;;26.36;54.19;99971.97;7328452;19;128904;-39
2022/08/11 14:17:54;;;;;;;;;;;;;;;25.92;52.54;99981.81;7328164;19;129223;-36
2022/08/11 14:20:20;;;;;;;;;;;;;;;26.12;56.98;99967.44;7326454;19;128910;-39
2022/08/11 14:22:46;;;;;;;;;;;;;;;26.36;57.38;99970.13;7327500;19;128825;-37
2022/08/11 14:25:15;;;;;;;;;;;;;;;26.48;57.14;99974.13;7327646;19;131394;-35
2022/08/11 14:27:42;;;;;;;;;;;;;;;26.48;57.44;99958.31;7328546;19;131066;-39
2022/08/11 14:30:53;;;;;;;;;;;;;;;26.49;57.79;99975.78;7327318;19;129421;-38
2022/08/11 14:32:55;;;;;;;;;;;;;;;26.61;57.95;99968.41;7327279;19;129142;-39
2022/08/11 14:35:20;;;;;;;;;;;;;;;26.62;57.46;99970.03;7327023;19;130346;-38
2022/08/11 14:37:45;;;;;;;;;;;;;;;26.64;57.33;99968.88;7327496;19;130371;-39
2022/08/11 14:47:03;;;;;;;;;;;;;;;26.64;57.34;99966.22;7325934;19;129171;-40
2022/08/11 14:48:25;;;;;;;;;;;;;;;26.65;58.26;99965.28;7327383;19;129353;-39
2022/08/11 14:50:51;;;;;;;;;;;;;;;26.65;57.79;99962.66;7325701;19;129246;-39
2022/08/11 14:53:20;;;;;;;;;;;;;;;26.66;57.83;99966.94;7327769;19;129344;-37
2022/08/11 14:58:30;;;;;;;;;;;;;;;26.64;58.08;99945.13;7326772;19;129440;-39
2022/08/11 15:00:56;;;;;;;;;;;;;;;26.65;57.69;99946.84;7324485;19;130146;-36
2022/08/11 15:03:23;;;;;;;;;;;;;;;26.63;58.41;99946.13;7326459;19;129097;-39
2022/08/11 15:05:52;;;;;;;;;;;;;;;25.94;52.72;99950.88;7325341;19;129577;-36
2022/08/11 15:08:18;;;;;;;;;;;;;;;26.06;56.11;99952.28;7326145;19;130446;-37
2022/08/11 15:10:45;;;;;;;;;;;;;;;26.34;57.07;99950.22;7325504;19;129140;-38
2022/08/11 15:13:10;;;;;;;;;;;;;;;26.48;57.26;99942.47;7319637;19;129091;-38
2022/08/11 15:18:22;;;;;;;;;;;;;;;26.58;57.54;99932.59;7319534;19;128871;-38
2022/08/11 15:26:18;;;;;;;;;;;;;;;26.62;57.61;99933.13;7316504;19;129640;-40
2022/08/11 15:48:15;;;;;;;;;;;;;;;26.64;58.09;99924.03;7317440;19;129228;-40
2022/08/11 15:50:44;;;;;;;;;;;;;;;26.64;57.86;99926.66;7316154;19;129226;-37
2022/08/11 15:53:24;;;;;;;;;;;;;;;26.00;52.81;99931.78;7318605;19;129473;-38
2022/08/11 15:55:50;;;;;;;;;;;;;;;25.88;53.21;99922.56;7317999;19;129083;-34
2022/08/11 16:06:33;;;;;;;;;;;;;;;26.57;57.10;99915.16;7315416;19;128888;-39
2022/08/11 16:09:03;;;;;;;;;;;;;;;26.62;57.56;99907.56;7316360;19;130172;-38
2022/08/11 16:11:28;;;;;;;;;;;;;;;26.62;57.98;99902.28;7315126;19;130397;-38
2022/08/11 16:16:39;;;;;;;;;;;;;;;26.64;57.38;99908.19;7316606;19;129330;-38
2022/08/11 16:19:08;;;;;;;;;;;;;;;26.65;57.70;99906.41;7314659;19;131024;-38
2022/08/11 16:21:34;;;;;;;;;;;;;;;26.58;57.66;99890.41;7314433;19;129938;-38
2022/08/11 16:24:00;;;;;;;;;;;;;;;26.67;57.60;99905.28;7315727;19;129295;-37
2022/08/11 16:26:28;;;;;;;;;;;;;;;26.65;58.44;99907.25;7316250;19;129197;-39
2022/08/11 16:28:58;;;;;;;;;;;;;;;26.68;58.03;99903.47;7317074;19;129062;-38
2022/08/11 16:31:24;;;;;;;;;;;;;;;26.68;57.63;99906.94;7315139;19;130523;-37
2022/08/11 16:33:51;;;;;;;;;;;;;;;26.65;57.48;99896.72;7317579;19;129513;-38
2022/08/11 16:39:02;;;;;;;;;;;;;;;26.68;58.23;99896.38;7316768;19;129922;-38
2022/08/11 16:47:00;;;;;;;;;;;;;;;26.18;57.52;99908.81;7313970;19;128833;-38
2022/08/11 16:49:27;;;;;;;;;;;;;;;26.38;56.90;99896.97;7315045;19;129747;-39
2022/08/11 16:51:53;;;;;;;;;;;;;;;26.49;57.69;99904.59;7313370;19;129568;-36
2022/08/11 16:54:18;;;;;;;;;;;;;;;26.55;57.98;99895.19;7316779;19;129235;-39
2022/08/11 16:56:49;;;;;;;;;;;;;;;26.59;58.00;99899.97;7315970;19;128839;-36
2022/08/11 16:59:32;;;;;;;;;;;;;;;26.62;57.66;99899.66;7314929;19;129018;-38
2022/08/11 17:02:00;;;;;;;;;;;;;;;26.59;57.32;99892.03;7312717;19;129776;-40
2022/08/11 17:13:08;;;;;;;;;;;;;;;26.66;57.70;99898.34;7316162;19;129395;-37
2022/08/11 17:18:41;;;;;;;;;;;;;;;26.63;57.73;99901.28;7315823;19;129379;-37
2022/08/11 17:21:18;;;;;;;;;;;;;;;26.65;58.04;99903.75;7314061;19;130883;-39
2022/08/11 17:23:49;;;;;;;;;;;;;;;26.68;58.09;99901.66;7315566;19;129356;-37
2022/08/11 17:26:16;;;;;;;;;;;;;;;26.68;58.07;99901.66;7313434;19;129312;-38
2022/08/11 17:28:42;;;;;;;;;;;;;;;26.68;58.37;99900.81;7314504;19;129205;-36
2022/08/11 17:36:39;;;;;;;;;;;;;;;26.28;57.38;99900.78;7313546;19;129324;-38
2022/08/11 17:39:06;;;;;;;;;;;;;;;26.45;57.42;99900.63;7313945;19;128924;-37
2022/08/11 17:49:44;;;;;;;;;;;;;;;26.64;58.12;99897.66;7313268;19;129315;-36
2022/08/11 18:00:24;;;;;;;;;;;;;;;26.68;57.93;99906.09;7313263;19;129107;-37
2022/08/11 18:05:35;;;;;;;;;;;;;;;26.68;57.95;99914.00;7313768;19;129657;-37
